HEAX/ALY METAR and TAF weather

Enter ICAO airport designator
Station Type Date Time Source
HEAX METAR 2018/07/21 03:00 UTC NOAA

HEAX 210300Z 30007KT CAVOK 26/21 Q1008 NOSIG


Station Type Date Time Source
HEAX Decoded METAR 2018/07/21 03:00 UTC NOAA

Alexandria / Nouzha, Egypt (HEAX) 31-12N 029-57E 7M
Jul 20, 2018 - 11:00 PM EDT / 2018.07.21 0300 UTC
Wind: from the WNW (300 degrees) at 8 MPH (7 KT):0
Visibility: greater than 7 mile(s):0
Temperature: 78 F (26 C)
Dew Point: 69 F (21 C)
Relative Humidity: 73%
Pressure (altimeter): 29.77 in. Hg (1008 hPa)
ob: HEAX 210300Z 30007KT CAVOK 26/21 Q1008 NOSIG
cycle: 3

Station Type Date Time Source
HEAX TAF 2018/07/20 18:25 UTC NOAA

TAF HEAX 201700Z 2018/2124 33011KT CAVOK


Example: see airport list